Alderson, West Virginia
Current Conditions -  °F | °C
As of 7:35 AM on Saturday 25 Oct 2014 (Local Time) from KLWB Reporting Station
Haze Haze  
Wind Chill: 31°   Ceiling: 700
Heat Index: 31°   Visibility: 1.7mi
Dew Point: 30°   Wind: 0mph
Humidity: 96%   Direction: NA
Pressure: 30.06"   Gusts: NA
Location:  37.73°N, 80.64°W
Report Text: KLWB 251135Z AUTO 00000KT 1 3/4SM BR VV007 M01/M01 A3006 RMK AO2 VIS 3/4V5 T10061012
Loading
Personal Weather Stations






























Interactive Weather Map
Tropical Storm Tracking
New forecast layout! Learn more

10-Day Weather Forecast

Advertisements
Track Severe Weather on mobile